Le Roy, Illinois
Current Conditions -  °F | °C
As of 8:56 PM on Friday 21 Nov 2014 (Local Time) from KBMI Reporting Station
Overcast Overcast  
Wind Chill: 23°   Ceiling: 2000
Heat Index: 34°   Visibility: 10mi
Dew Point: 17°   Wind: 18mph
Humidity: 50%   Direction: 170°S
Pressure: 30.25"   Gusts: NA
Location:  40.35°N, 88.76°W
Report Text: KBMI 220256Z 17016KT 10SM OVC020 01/M08 A3025 RMK AO2 58017 T00111083 SLP264
Loading
Personal Weather Stations






























Interactive Weather Map New forecast layout! Learn more

10-Day Weather Forecast

Advertisements
Track Severe Weather on mobile